Terminal Aerodrome Forecast
Issued by NWS

Home | Current Version | Previous Version | Text Only | Print | Product List | Glossary On
Versions: 1 2 3 4 5 6 7 8 9 10 11 12 13 14 15 16 17
000
FTUS45 KABQ 220534
TAFSAF
TAF
KSAF 220534Z 2206/2306 36010KT P6SM VCSH BKN090
     FM220900 36011KT P6SM BKN100
      TEMPO 2213/2217 36014G22KT
     FM221800 13011KT P6SM VCSH SCT090 BKN150
     FM222200 13014G24KT P6SM VCTS BKN090CB
     FM230100 13015G25KT P6SM VCSH BKN090=

USA.gov is the U.S. government's official web portal to all federal, state and local government web resources and services.